In Rescue
 
Open Full Screen Window  High Contrast Mode
Wind Gusting 00 knots
07
July 13, 2020 11:26 AM EDT
Weather Information
Wind Direction
  010 °
Wind Speed
  07 kt (8 mph)
Wind Gust
  00 kt (0 mph)
Altimeter
30.01 in
Visibility
10 SM
Temperature
22° C
72° F
Dewpoint
16° C
61° F
Humidity
69%
1hr Rain Fall
00.00 in.
24hr Rain Fall
00.00 in.
Sky Condition
Scattered @ 2,600 ft
VFR

METAR KIRS 131526Z AUTO 01007KT 10SM SCT026 22/16 A3001 RMK AO2 T02230156

FAA Disclaimer: The data displayed is for advisory purposes only and is not to be used for flight planning or operations.